Time;durP1;ratioP1;P1;durP2;ratioP2;P2;SDS_P1;SDS_P2;PMS_P1;PMS_P2;Temp;Humidity;BMP_temperature;BMP_pressure;BME280_temperature;BME280_humidity;BME280_pressure;Samples;Min_cycle;Max_cycle;Signal;HPM_P1;HPM_P2
2023/03/27 00:02:00;;;;;;;4.57;2.63;;;;;;;;;;5017031;28;20077;-58
2023/03/27 00:04:27;;;;;;;8.27;3.10;;;;;;;;;;5024354;28;20234;-54
2023/03/27 00:06:53;;;;;;;4.38;2.72;;;;;;;;;;5011645;28;20104;-56
2023/03/27 00:09:20;;;;;;;4.32;3.20;;;;;;;;;;5009027;28;20045;-57
2023/03/27 00:11:46;;;;;;;4.57;3.20;;;;;;;;;;5012053;28;20030;-58
2023/03/27 00:14:12;;;;;;;4.28;3.13;;;;;;;;;;5013768;28;20104;-55
2023/03/27 00:16:37;;;;;;;6.88;3.33;;;;;;;;;;5008981;28;20541;-60
2023/03/27 00:19:02;;;;;;;5.97;3.08;;;;;;;;;;5015312;28;20470;-59
2023/03/27 00:21:28;;;;;;;4.82;3.03;;;;;;;;;;5008734;28;20458;-57
2023/03/27 00:23:54;;;;;;;5.97;3.30;;;;;;;;;;5012472;28;20119;-58
2023/03/27 00:26:23;;;;;;;3.88;3.10;;;;;;;;;;5012184;28;20033;-58
2023/03/27 00:28:49;;;;;;;4.63;3.28;;;;;;;;;;5022633;28;20045;-57
2023/03/27 00:31:14;;;;;;;4.10;2.72;;;;;;;;;;5016622;28;21702;-58
2023/03/27 00:33:40;;;;;;;3.78;2.70;;;;;;;;;;5014457;28;20036;-58
2023/03/27 00:36:06;;;;;;;5.05;3.15;;;;;;;;;;5011383;28;20605;-59
2023/03/27 00:38:32;;;;;;;2.75;2.28;;;;;;;;;;5013738;28;20035;-58
2023/03/27 00:40:58;;;;;;;3.28;2.30;;;;;;;;;;5008044;28;20128;-57
2023/03/27 00:43:25;;;;;;;2.75;2.00;;;;;;;;;;5015223;28;20108;-61
2023/03/27 00:45:53;;;;;;;2.37;1.70;;;;;;;;;;5007916;28;20152;-57
2023/03/27 00:48:19;;;;;;;1.70;1.50;;;;;;;;;;5009416;28;20087;-57
2023/03/27 00:50:45;;;;;;;2.10;1.70;;;;;;;;;;5016908;28;20038;-57
2023/03/27 00:53:16;;;;;;;2.60;1.70;;;;;;;;;;5007203;28;20160;-55
2023/03/27 00:55:43;;;;;;;3.15;1.63;;;;;;;;;;5028192;28;20056;-59
2023/03/27 00:58:12;;;;;;;1.50;1.40;;;;;;;;;;5007390;28;20022;-57
2023/03/27 01:00:37;;;;;;;2.38;1.60;;;;;;;;;;5013132;28;20033;-59
2023/03/27 01:03:04;;;;;;;1.77;1.60;;;;;;;;;;5015866;28;20049;-60
2023/03/27 01:05:30;;;;;;;1.50;1.40;;;;;;;;;;5008628;28;20394;-56
2023/03/27 01:07:56;;;;;;;1.50;1.40;;;;;;;;;;5018177;28;20128;-57
2023/03/27 01:10:26;;;;;;;2.17;1.80;;;;;;;;;;5010611;28;20061;-60
2023/03/27 01:12:51;;;;;;;2.25;1.50;;;;;;;;;;5020126;28;20489;-57
2023/03/27 01:15:22;;;;;;;1.95;1.52;;;;;;;;;;5018853;28;20034;-56
2023/03/27 01:17:54;;;;;;;1.60;1.50;;;;;;;;;;5014755;28;20033;-57
2023/03/27 01:20:35;;;;;;;1.95;1.65;;;;;;;;;;5007135;28;20061;-57
2023/03/27 01:23:16;;;;;;;1.60;1.50;;;;;;;;;;5013037;28;20032;-57
2023/03/27 01:26:04;;;;;;;1.92;1.52;;;;;;;;;;5021381;28;20034;-58
2023/03/27 01:28:42;;;;;;;1.50;1.20;;;;;;;;;;5023784;28;20505;-60
2023/03/27 01:31:19;;;;;;;2.50;1.30;;;;;;;;;;5013168;28;20041;-60
2023/03/27 01:33:48;;;;;;;1.58;1.48;;;;;;;;;;5005663;28;20531;-58
2023/03/27 01:36:28;;;;;;;1.45;1.35;;;;;;;;;;5007698;28;20121;-64
2023/03/27 01:39:12;;;;;;;2.42;1.60;;;;;;;;;;5012507;28;20032;-60
2023/03/27 01:41:57;;;;;;;2.33;1.50;;;;;;;;;;5013125;28;20079;-58
2023/03/27 01:44:32;;;;;;;1.95;1.50;;;;;;;;;;5007297;28;20044;-61
2023/03/27 01:47:17;;;;;;;1.98;1.50;;;;;;;;;;5026084;28;20243;-58
2023/03/27 01:50:01;;;;;;;3.17;2.00;;;;;;;;;;4996532;28;20099;-57
2023/03/27 01:52:28;;;;;;;1.67;1.58;;;;;;;;;;5006079;28;20109;-61
2023/03/27 01:54:57;;;;;;;3.90;1.85;;;;;;;;;;5010538;28;20514;-56
2023/03/27 01:57:27;;;;;;;2.13;1.90;;;;;;;;;;5022050;28;20757;-56
2023/03/27 01:59:58;;;;;;;3.08;1.80;;;;;;;;;;5026585;28;20064;-58
2023/03/27 02:02:29;;;;;;;2.95;1.70;;;;;;;;;;5012333;28;20152;-58
2023/03/27 02:05:06;;;;;;;2.47;1.80;;;;;;;;;;5017474;28;20116;-57
2023/03/27 02:07:39;;;;;;;2.40;1.92;;;;;;;;;;5025128;28;20060;-57
2023/03/27 02:10:07;;;;;;;2.25;1.80;;;;;;;;;;5009099;28;20390;-57
2023/03/27 02:12:38;;;;;;;3.72;2.10;;;;;;;;;;5022678;28;20134;-63
2023/03/27 02:15:33;;;;;;;5.80;2.00;;;;;;;;;;5012823;28;20399;-59
2023/03/27 02:18:06;;;;;;;3.00;2.20;;;;;;;;;;5000596;28;20041;-58
2023/03/27 02:20:32;;;;;;;3.30;2.00;;;;;;;;;;5012980;28;20040;-56
2023/03/27 02:23:01;;;;;;;3.92;2.28;;;;;;;;;;5021260;28;20030;-59
2023/03/27 02:25:33;;;;;;;2.95;2.13;;;;;;;;;;5008994;28;20061;-62
2023/03/27 02:28:11;;;;;;;4.60;2.03;;;;;;;;;;5011662;28;20034;-61
2023/03/27 02:30:36;;;;;;;4.35;1.95;;;;;;;;;;5010071;28;20030;-59
2023/03/27 02:33:14;;;;;;;2.90;2.10;;;;;;;;;;5009372;28;20461;-59
2023/03/27 02:35:49;;;;;;;3.20;2.20;;;;;;;;;;5010534;28;20463;-60
2023/03/27 02:38:17;;;;;;;4.05;2.20;;;;;;;;;;5023280;28;20091;-59
2023/03/27 02:41:13;;;;;;;7.47;2.72;;;;;;;;;;5013794;28;20065;-60
2023/03/27 02:44:23;;;;;;;5.28;2.90;;;;;;;;;;5012772;28;20124;-60
2023/03/27 02:47:01;;;;;;;5.43;2.83;;;;;;;;;;5010350;28;20029;-61
2023/03/27 02:50:00;;;;;;;3.88;2.80;;;;;;;;;;5006961;28;20045;-61
2023/03/27 02:52:28;;;;;;;4.20;2.70;;;;;;;;;;4989672;28;20038;-59
2023/03/27 02:54:53;;;;;;;;;;;;;;;;;;5007799;28;20034;-56
2023/03/27 02:57:21;;;;;;;4.53;2.70;;;;;;;;;;5008922;28;19994;-58
2023/03/27 03:00:11;;;;;;;;;;;;;;;;;;5009084;28;20317;-59
2023/03/27 03:02:39;;;;;;;6.95;3.47;;;;;;;;;;5011691;28;20593;-58
2023/03/27 03:05:06;;;;;;;5.72;3.20;;;;;;;;;;5004383;28;20482;-58
2023/03/27 03:07:37;;;;;;;5.93;3.10;;;;;;;;;;5011409;28;20029;-58
2023/03/27 03:10:04;;;;;;;6.60;3.30;;;;;;;;;;5007153;28;20033;-61
2023/03/27 03:12:31;;;;;;;5.70;3.78;;;;;;;;;;5025789;28;20125;-61
2023/03/27 03:14:56;;;;;;;6.68;3.70;;;;;;;;;;5009737;28;20117;-59
2023/03/27 03:17:21;;;;;;;8.80;4.63;;;;;;;;;;5007344;28;20883;-57
2023/03/27 03:19:48;;;;;;;7.25;4.03;;;;;;;;;;5010804;28;20068;-59
2023/03/27 03:22:13;;;;;;;7.57;3.58;;;;;;;;;;5003581;28;20079;-57
2023/03/27 03:24:40;;;;;;;8.02;3.95;;;;;;;;;;5014217;28;20026;-56
2023/03/27 03:27:07;;;;;;;9.55;3.13;;;;;;;;;;5006205;28;20051;-59
2023/03/27 03:29:43;;;;;;;7.85;3.30;;;;;;;;;;5015625;28;20033;-58
2023/03/27 03:32:17;;;;;;;9.25;3.10;;;;;;;;;;5028871;28;20033;-57
2023/03/27 03:34:47;;;;;;;8.63;2.80;;;;;;;;;;5025296;28;20044;-56
2023/03/27 03:37:13;;;;;;;9.23;3.10;;;;;;;;;;5012912;28;20107;-60
2023/03/27 03:39:39;;;;;;;10.82;2.75;;;;;;;;;;5014203;28;20139;-57
2023/03/27 03:42:04;;;;;;;6.57;2.75;;;;;;;;;;5024345;28;20052;-62
2023/03/27 03:44:30;;;;;;;12.68;3.72;;;;;;;;;;5029340;28;20030;-57
2023/03/27 03:46:57;;;;;;;;;;;;;;;;;;5015010;28;20040;-58
2023/03/27 03:49:23;;;;;;;7.82;3.28;;;;;;;;;;5011308;28;19917;-63
2023/03/27 03:51:49;;;;;;;12.13;3.03;;;;;;;;;;5015545;28;21436;-61
2023/03/27 03:54:14;;;;;;;14.23;3.60;;;;;;;;;;5015603;28;20560;-56
2023/03/27 03:56:42;;;;;;;12.27;3.45;;;;;;;;;;5018396;28;20056;-62
2023/03/27 03:59:08;;;;;;;7.80;3.13;;;;;;;;;;5012275;28;20312;-55
2023/03/27 04:01:34;;;;;;;13.27;4.60;;;;;;;;;;5006914;28;20554;-62
2023/03/27 04:04:01;;;;;;;11.60;3.15;;;;;;;;;;5028215;28;20159;-57
2023/03/27 04:06:42;;;;;;;11.75;3.28;;;;;;;;;;5006153;28;20053;-57
2023/03/27 04:09:07;;;;;;;17.50;3.15;;;;;;;;;;5011936;28;20572;-60
2023/03/27 04:11:52;;;;;;;14.60;3.20;;;;;;;;;;5008522;28;20136;-55
2023/03/27 04:14:42;;;;;;;8.20;2.90;;;;;;;;;;5008253;28;20030;-55
2023/03/27 04:17:27;;;;;;;15.07;3.65;;;;;;;;;;5016446;28;20038;-60
2023/03/27 04:19:54;;;;;;;14.88;3.28;;;;;;;;;;5008161;28;20041;-58
2023/03/27 04:22:21;;;;;;;14.40;3.58;;;;;;;;;;5025112;28;20044;-57
2023/03/27 04:24:49;;;;;;;13.48;3.45;;;;;;;;;;5027434;28;20043;-61
2023/03/27 04:27:16;;;;;;;9.77;3.75;;;;;;;;;;4995246;28;20030;-58
2023/03/27 04:30:07;;;;;;;9.88;3.35;;;;;;;;;;5005424;28;20045;-58
2023/03/27 04:32:58;;;;;;;16.10;3.58;;;;;;;;;;5013689;28;20049;-59
2023/03/27 04:35:49;;;;;;;15.70;3.50;;;;;;;;;;5006229;28;20029;-57
2023/03/27 04:38:18;;;;;;;15.02;3.30;;;;;;;;;;5020177;28;20084;-55
2023/03/27 04:40:44;;;;;;;8.98;3.05;;;;;;;;;;5012485;28;20559;-57
2023/03/27 04:43:11;;;;;;;15.48;4.10;;;;;;;;;;5007704;28;20044;-57
2023/03/27 04:45:37;;;;;;;15.57;3.50;;;;;;;;;;5020421;28;20030;-58
2023/03/27 04:48:03;;;;;;;9.70;3.20;;;;;;;;;;5020803;28;20976;-58
2023/03/27 04:50:29;;;;;;;10.67;4.37;;;;;;;;;;5006391;28;20037;-56
2023/03/27 04:52:58;;;;;;;8.88;2.85;;;;;;;;;;5026262;28;20287;-53
2023/03/27 04:55:25;;;;;;;7.90;2.75;;;;;;;;;;5009733;28;20041;-58
2023/03/27 04:57:52;;;;;;;16.60;3.47;;;;;;;;;;5025587;28;20029;-58
2023/03/27 05:00:18;;;;;;;7.85;3.05;;;;;;;;;;5021037;28;20063;-58
2023/03/27 05:02:47;;;;;;;11.63;3.13;;;;;;;;;;5006249;28;20046;-59
2023/03/27 05:05:18;;;;;;;7.90;3.20;;;;;;;;;;5016402;28;20025;-58
2023/03/27 05:07:44;;;;;;;12.98;3.15;;;;;;;;;;4991379;28;20034;-58
2023/03/27 05:10:16;;;;;;;10.57;4.18;;;;;;;;;;5006565;28;20124;-59
2023/03/27 05:12:45;;;;;;;13.65;3.42;;;;;;;;;;5025411;28;20044;-57
2023/03/27 05:15:13;;;;;;;15.07;3.70;;;;;;;;;;5002831;28;20041;-59
2023/03/27 05:17:42;;;;;;;17.05;3.28;;;;;;;;;;5026551;28;20029;-59
2023/03/27 05:20:11;;;;;;;14.80;3.80;;;;;;;;;;5019435;28;20042;-55
2023/03/27 05:22:37;;;;;;;8.07;3.50;;;;;;;;;;5008586;28;20494;-61
2023/03/27 05:25:14;;;;;;;18.55;3.78;;;;;;;;;;5024697;28;20033;-58
2023/03/27 05:27:44;;;;;;;12.43;3.55;;;;;;;;;;5009501;28;20052;-56
2023/03/27 05:30:10;;;;;;;14.80;3.53;;;;;;;;;;5007910;28;20064;-58
2023/03/27 05:32:36;;;;;;;12.57;3.42;;;;;;;;;;5015436;28;20137;-59
2023/03/27 05:35:26;;;;;;;7.95;3.28;;;;;;;;;;5004846;28;20046;-61
2023/03/27 05:37:53;;;;;;;10.15;3.13;;;;;;;;;;5015730;28;20029;-58
2023/03/27 05:40:30;;;;;;;14.13;3.60;;;;;;;;;;5012670;28;20689;-56
2023/03/27 05:42:56;;;;;;;13.32;3.58;;;;;;;;;;5027009;28;20124;-62
2023/03/27 05:45:25;;;;;;;11.88;3.50;;;;;;;;;;5016128;28;20041;-60
2023/03/27 05:47:55;;;;;;;9.57;3.38;;;;;;;;;;5012592;28;20088;-63
2023/03/27 05:50:25;;;;;;;6.53;2.95;;;;;;;;;;5028557;28;20037;-59
2023/03/27 05:53:00;;;;;;;12.00;3.33;;;;;;;;;;5018347;28;20025;-58
2023/03/27 05:55:31;;;;;;;18.73;3.50;;;;;;;;;;5014103;28;20025;-59
2023/03/27 05:57:57;;;;;;;6.22;2.90;;;;;;;;;;5010447;28;20045;-59
2023/03/27 06:00:26;;;;;;;13.38;3.30;;;;;;;;;;5016787;28;20033;-60
2023/03/27 06:02:55;;;;;;;14.23;3.30;;;;;;;;;;5033076;28;20045;-55
2023/03/27 06:05:20;;;;;;;;;;;;;;;;;;5002342;28;20209;-61
2023/03/27 06:07:49;;;;;;;15.05;3.00;;;;;;;;;;5014834;28;19913;-58
2023/03/27 06:10:19;;;;;;;7.97;2.92;;;;;;;;;;5015874;28;20381;-60
2023/03/27 06:13:12;;;;;;;11.35;3.15;;;;;;;;;;5033218;28;20092;-54
2023/03/27 06:15:51;;;;;;;9.07;3.13;;;;;;;;;;5008580;28;20029;-59
2023/03/27 06:18:37;;;;;;;17.08;3.83;;;;;;;;;;4998679;28;20041;-56
2023/03/27 06:21:02;;;;;;;12.68;3.28;;;;;;;;;;5029126;28;20445;-59
2023/03/27 06:23:28;;;;;;;10.70;3.50;;;;;;;;;;5017484;28;20033;-59
2023/03/27 06:25:53;;;;;;;8.45;3.22;;;;;;;;;;5031247;28;20048;-57
2023/03/27 06:28:22;;;;;;;7.80;2.67;;;;;;;;;;4999048;28;20037;-57
2023/03/27 06:30:48;;;;;;;14.45;3.03;;;;;;;;;;5031391;28;20033;-58
2023/03/27 06:33:28;;;;;;;16.17;3.53;;;;;;;;;;5014455;28;20442;-58
2023/03/27 06:35:58;;;;;;;6.22;2.78;;;;;;;;;;5031909;28;20768;-59
2023/03/27 06:38:30;;;;;;;8.23;2.92;;;;;;;;;;5026560;28;20068;-54
2023/03/27 06:40:55;;;;;;;8.88;2.92;;;;;;;;;;5019458;28;20033;-59
2023/03/27 06:43:21;;;;;;;9.20;3.40;;;;;;;;;;4994603;28;20048;-58
2023/03/27 06:45:57;;;;;;;9.63;2.87;;;;;;;;;;5025173;28;20124;-59
2023/03/27 06:48:41;;;;;;;10.57;3.03;;;;;;;;;;5015730;28;20285;-55
2023/03/27 06:51:07;;;;;;;14.10;3.40;;;;;;;;;;5020291;28;20034;-56
2023/03/27 06:53:32;;;;;;;15.60;3.13;;;;;;;;;;5019432;28;20026;-56
2023/03/27 06:55:58;;;;;;;11.65;3.20;;;;;;;;;;5017978;28;20075;-57
2023/03/27 06:58:26;;;;;;;8.18;2.85;;;;;;;;;;5016327;28;20033;-56
2023/03/27 07:00:52;;;;;;;11.52;3.28;;;;;;;;;;5019979;28;20033;-57
2023/03/27 07:03:21;;;;;;;8.18;3.17;;;;;;;;;;5015460;28;20042;-53
2023/03/27 07:05:59;;;;;;;5.05;2.50;;;;;;;;;;5015227;28;20175;-60
2023/03/27 07:08:30;;;;;;;12.73;3.67;;;;;;;;;;5022354;28;20045;-58
2023/03/27 07:10:58;;;;;;;16.48;3.55;;;;;;;;;;5021031;28;20125;-61
2023/03/27 07:13:24;;;;;;;11.13;2.67;;;;;;;;;;5023554;28;20302;-57
2023/03/27 07:15:50;;;;;;;11.02;3.78;;;;;;;;;;5008578;28;20028;-59
2023/03/27 07:18:17;;;;;;;12.55;3.00;;;;;;;;;;5016843;28;20197;-60
2023/03/27 07:20:49;;;;;;;10.70;3.00;;;;;;;;;;5029415;28;20844;-59
2023/03/27 07:23:16;;;;;;;9.43;3.03;;;;;;;;;;5020584;28;20064;-58
2023/03/27 07:25:55;;;;;;;10.98;3.75;;;;;;;;;;5022752;28;20029;-58
2023/03/27 07:28:32;;;;;;;8.35;3.00;;;;;;;;;;5018943;28;20112;-58
2023/03/27 07:31:10;;;;;;;9.82;2.70;;;;;;;;;;5021373;28;20736;-60
2023/03/27 07:33:37;;;;;;;11.55;3.15;;;;;;;;;;5021439;28;20029;-57
2023/03/27 07:36:05;;;;;;;15.02;3.13;;;;;;;;;;5027961;28;20036;-59
2023/03/27 07:38:38;;;;;;;8.25;2.55;;;;;;;;;;5013335;28;20037;-61
2023/03/27 07:41:17;;;;;;;11.15;2.72;;;;;;;;;;5018079;28;20041;-58
2023/03/27 07:43:48;;;;;;;13.00;2.80;;;;;;;;;;5018953;28;20052;-59
2023/03/27 07:46:14;;;;;;;7.75;2.60;;;;;;;;;;5019590;28;20405;-59
2023/03/27 07:48:40;;;;;;;10.57;2.65;;;;;;;;;;5030658;28;20109;-58
2023/03/27 07:51:12;;;;;;;10.35;2.85;;;;;;;;;;5014143;28;20558;-56
2023/03/27 07:53:37;;;;;;;8.93;3.03;;;;;;;;;;5025047;28;20028;-55
2023/03/27 07:56:23;;;;;;;9.77;2.42;;;;;;;;;;5012982;28;20042;-57
2023/03/27 07:59:05;;;;;;;7.35;2.50;;;;;;;;;;5028900;28;20064;-61
2023/03/27 08:01:31;;;;;;;10.00;2.22;;;;;;;;;;5029692;28;20137;-57
2023/03/27 08:03:58;;;;;;;7.60;2.20;;;;;;;;;;4999154;28;20034;-59
2023/03/27 08:06:23;;;;;;;9.77;2.55;;;;;;;;;;5023342;28;20044;-58
2023/03/27 08:08:49;;;;;;;4.30;2.40;;;;;;;;;;5031537;28;20029;-58
2023/03/27 08:11:15;;;;;;;10.85;2.78;;;;;;;;;;5018257;28;20048;-59
2023/03/27 08:13:43;;;;;;;7.43;2.50;;;;;;;;;;5016964;28;20825;-63
2023/03/27 08:16:14;;;;;;;8.17;2.37;;;;;;;;;;5019504;28;20036;-60
2023/03/27 08:18:41;;;;;;;6.20;2.08;;;;;;;;;;5026570;28;20345;-60
2023/03/27 08:21:08;;;;;;;14.43;2.58;;;;;;;;;;5016128;28;20117;-56
2023/03/27 08:23:34;;;;;;;10.60;3.63;;;;;;;;;;5014878;28;20045;-59
2023/03/27 08:26:19;;;;;;;11.05;2.45;;;;;;;;;;5015308;28;20064;-62
2023/03/27 08:28:52;;;;;;;7.13;2.30;;;;;;;;;;5017413;28;20029;-60
2023/03/27 08:31:19;;;;;;;10.68;2.47;;;;;;;;;;5014817;28;20042;-61
2023/03/27 08:33:45;;;;;;;9.40;2.15;;;;;;;;;;5029582;28;20815;-58
2023/03/27 08:36:18;;;;;;;6.15;2.20;;;;;;;;;;5015840;28;20033;-59
2023/03/27 08:38:44;;;;;;;7.78;2.78;;;;;;;;;;5019392;28;20042;-55
2023/03/27 08:41:37;;;;;;;8.32;2.42;;;;;;;;;;5035355;28;20038;-57
2023/03/27 08:44:17;;;;;;;5.00;1.88;;;;;;;;;;5026117;28;20117;-58
2023/03/27 08:46:46;;;;;;;5.72;2.05;;;;;;;;;;5025283;28;20041;-54
2023/03/27 08:49:22;;;;;;;10.43;2.35;;;;;;;;;;5020151;28;20865;-58
2023/03/27 08:52:21;;;;;;;4.55;2.00;;;;;;;;;;4996961;28;20041;-60
2023/03/27 08:55:18;;;;;;;7.68;2.55;;;;;;;;;;5027147;28;20796;-58
2023/03/27 08:57:59;;;;;;;6.43;2.20;;;;;;;;;;5012017;28;20083;-59
2023/03/27 09:00:30;;;;;;;5.38;1.83;;;;;;;;;;5027846;28;20467;-58
2023/03/27 09:03:05;;;;;;;4.03;1.95;;;;;;;;;;5027797;28;20123;-58
2023/03/27 09:05:43;;;;;;;4.82;2.00;;;;;;;;;;5028021;28;21735;-57
2023/03/27 09:08:09;;;;;;;6.03;2.10;;;;;;;;;;5015440;28;20117;-57
2023/03/27 09:10:39;;;;;;;6.40;2.22;;;;;;;;;;5026162;28;20144;-59
2023/03/27 09:13:32;;;;;;;4.43;2.20;;;;;;;;;;5016141;28;20029;-59
2023/03/27 09:16:17;;;;;;;8.55;2.15;;;;;;;;;;5025440;28;20044;-60
2023/03/27 09:18:49;;;;;;;8.77;2.40;;;;;;;;;;5030500;28;20082;-60
2023/03/27 09:21:24;;;;;;;10.65;2.70;;;;;;;;;;5015617;28;20087;-59
2023/03/27 09:23:52;;;;;;;7.10;2.03;;;;;;;;;;5030184;28;20688;-58
2023/03/27 09:26:36;;;;;;;5.60;1.90;;;;;;;;;;5020229;28;20036;-58
2023/03/27 09:29:14;;;;;;;6.30;2.00;;;;;;;;;;5021451;28;20033;-59
2023/03/27 09:31:48;;;;;;;7.32;2.00;;;;;;;;;;5014396;28;20394;-61
2023/03/27 09:34:21;;;;;;;6.70;1.70;;;;;;;;;;5029119;28;20104;-59
2023/03/27 09:36:48;;;;;;;8.32;2.60;;;;;;;;;;5016443;28;20087;-62
2023/03/27 09:39:21;;;;;;;6.80;2.03;;;;;;;;;;5017708;28;20815;-62
2023/03/27 09:41:52;;;;;;;5.63;1.95;;;;;;;;;;5019253;28;20065;-60
2023/03/27 09:44:24;;;;;;;8.60;2.42;;;;;;;;;;5022962;28;20037;-58
2023/03/27 09:46:54;;;;;;;7.40;2.40;;;;;;;;;;5024554;28;20562;-57
2023/03/27 09:49:20;;;;;;;5.28;1.70;;;;;;;;;;5020048;28;20033;-61
2023/03/27 09:51:52;;;;;;;9.68;1.85;;;;;;;;;;5024291;28;20038;-58
2023/03/27 09:54:51;;;;;;;3.60;1.92;;;;;;;;;;5013536;28;20045;-59
2023/03/27 09:57:17;;;;;;;10.68;1.90;;;;;;;;;;5018311;28;20742;-58
2023/03/27 10:00:00;;;;;;;6.63;1.80;;;;;;;;;;5014901;28;20064;-59
2023/03/27 10:02:27;;;;;;;4.78;1.80;;;;;;;;;;5017474;28;20029;-58
2023/03/27 10:05:00;;;;;;;7.28;2.00;;;;;;;;;;5015536;28;20095;-58
2023/03/27 10:07:30;;;;;;;3.83;1.60;;;;;;;;;;5029163;28;20699;-60
2023/03/27 10:10:40;;;;;;;5.35;2.13;;;;;;;;;;5019953;28;20049;-55
2023/03/27 10:13:24;;;;;;;5.60;1.92;;;;;;;;;;5026868;28;20494;-58
2023/03/27 10:15:57;;;;;;;5.93;1.80;;;;;;;;;;5013852;28;20086;-62
2023/03/27 10:18:29;;;;;;;7.45;2.03;;;;;;;;;;5026701;28;20065;-58
2023/03/27 10:21:09;;;;;;;8.43;2.05;;;;;;;;;;5029496;28;20856;-60
2023/03/27 10:23:45;;;;;;;7.43;1.70;;;;;;;;;;5018288;28;20049;-59
2023/03/27 10:26:25;;;;;;;6.05;1.80;;;;;;;;;;5026878;28;20032;-60
2023/03/27 10:28:51;;;;;;;7.68;1.92;;;;;;;;;;5017123;28;20025;-58
2023/03/27 10:31:25;;;;;;;8.15;2.42;;;;;;;;;;5026133;28;20497;-59
2023/03/27 10:33:55;;;;;;;6.47;2.30;;;;;;;;;;5015501;28;21789;-60
2023/03/27 10:36:45;;;;;;;7.38;1.95;;;;;;;;;;4972717;28;20049;-59
2023/03/27 10:39:14;;;;;;;6.53;1.90;;;;;;;;;;5017439;28;20030;-63
2023/03/27 10:42:07;;;;;;;4.55;1.88;;;;;;;;;;5016040;28;20053;-59
2023/03/27 10:44:36;;;;;;;8.85;2.42;;;;;;;;;;5030198;28;20080;-60
2023/03/27 10:47:02;;;;;;;6.72;1.90;;;;;;;;;;5028969;28;20057;-59
2023/03/27 10:49:40;;;;;;;5.85;1.75;;;;;;;;;;5011827;28;20033;-60
2023/03/27 10:52:12;;;;;;;7.85;2.10;;;;;;;;;;5029974;28;20106;-60
2023/03/27 10:55:15;;;;;;;6.88;2.13;;;;;;;;;;5032980;28;20033;-60
2023/03/27 10:57:46;;;;;;;5.32;2.00;;;;;;;;;;5020274;28;20045;-58
2023/03/27 11:00:18;;;;;;;6.20;1.92;;;;;;;;;;5036868;28;20968;-59
2023/03/27 11:02:56;;;;;;;10.77;2.33;;;;;;;;;;5015426;28;20474;-58
2023/03/27 11:05:27;;;;;;;6.28;1.92;;;;;;;;;;5036110;28;20108;-59
2023/03/27 11:08:06;;;;;;;7.63;1.85;;;;;;;;;;5016526;28;20030;-59
2023/03/27 11:10:42;;;;;;;4.80;1.85;;;;;;;;;;5016364;28;20069;-62
2023/03/27 11:13:15;;;;;;;7.40;1.90;;;;;;;;;;5021202;28;20058;-59
2023/03/27 11:15:52;;;;;;;5.43;1.90;;;;;;;;;;5019924;28;20044;-59
2023/03/27 11:18:39;;;;;;;7.22;2.20;;;;;;;;;;5019978;28;20122;-62
2023/03/27 11:21:11;;;;;;;6.72;2.13;;;;;;;;;;5034115;28;20037;-61
2023/03/27 11:23:47;;;;;;;6.78;2.47;;;;;;;;;;5012792;28;20045;-58
2023/03/27 11:26:15;;;;;;;6.35;1.90;;;;;;;;;;5019103;28;20099;-59
2023/03/27 11:28:52;;;;;;;8.93;1.85;;;;;;;;;;5029810;28;20033;-59
2023/03/27 11:31:20;;;;;;;;;;;;;;;;;;5026613;28;20367;-60
2023/03/27 11:33:50;;;;;;;7.47;1.92;;;;;;;;;;5015840;28;19913;-59
2023/03/27 11:36:22;;;;;;;7.60;1.60;;;;;;;;;;5028810;28;20040;-58
2023/03/27 11:39:06;;;;;;;7.10;1.95;;;;;;;;;;5033467;28;20030;-60
2023/03/27 11:41:31;;;;;;;6.05;2.05;;;;;;;;;;5014194;28;20033;-59
2023/03/27 11:43:59;;;;;;;8.50;2.20;;;;;;;;;;5018476;28;20044;-61
2023/03/27 11:46:49;;;;;;;3.70;1.75;;;;;;;;;;5019604;28;20041;-59
2023/03/27 11:49:17;;;;;;;4.93;1.98;;;;;;;;;;5028042;28;20030;-60
2023/03/27 11:51:42;;;;;;;5.70;2.10;;;;;;;;;;5032551;28;20060;-58
2023/03/27 11:54:23;;;;;;;4.95;1.70;;;;;;;;;;5019060;28;20068;-61
2023/03/27 11:57:00;;;;;;;7.82;2.20;;;;;;;;;;5023982;28;20744;-58
2023/03/27 12:00:04;;;;;;;4.10;1.95;;;;;;;;;;5020048;28;20033;-61
2023/03/27 12:02:58;;;;;;;5.38;1.80;;;;;;;;;;5015300;28;20395;-58
2023/03/27 12:05:31;;;;;;;6.93;1.88;;;;;;;;;;5024644;28;20084;-58
2023/03/27 12:08:18;;;;;;;4.65;1.92;;;;;;;;;;5030368;28;20042;-60
2023/03/27 12:10:46;;;;;;;;;;;;;;;;;;5024277;28;20037;-58
2023/03/27 12:13:49;;;;;;;4.93;1.52;;;;;;;;;;5017369;28;19913;-61
2023/03/27 12:16:34;;;;;;;7.03;1.70;;;;;;;;;;5018155;28;20056;-60
2023/03/27 12:19:04;;;;;;;8.67;1.90;;;;;;;;;;5022433;28;20099;-61
2023/03/27 12:22:02;;;;;;;6.80;1.90;;;;;;;;;;5020570;28;20116;-60
2023/03/27 12:24:35;;;;;;;4.45;1.70;;;;;;;;;;4977581;28;20049;-61
2023/03/27 12:27:38;;;;;;;4.15;1.65;;;;;;;;;;5019505;28;20040;-58
2023/03/27 12:30:22;;;;;;;5.10;1.73;;;;;;;;;;5017405;28;20100;-59
2023/03/27 12:33:09;;;;;;;4.85;1.60;;;;;;;;;;5019602;28;20030;-63
2023/03/27 12:35:38;;;;;;;5.63;1.80;;;;;;;;;;5029712;28;20399;-58
2023/03/27 12:38:07;;;;;;;3.30;1.50;;;;;;;;;;5026755;28;20026;-61
2023/03/27 12:40:39;;;;;;;4.00;1.58;;;;;;;;;;5019043;28;20029;-58
2023/03/27 12:43:22;;;;;;;5.90;1.50;;;;;;;;;;5031484;28;20041;-62
2023/03/27 12:46:10;;;;;;;4.70;1.55;;;;;;;;;;5021387;28;20057;-62
2023/03/27 12:49:06;;;;;;;6.07;1.50;;;;;;;;;;5022472;28;20764;-62
2023/03/27 12:51:47;;;;;;;4.68;1.42;;;;;;;;;;5005839;28;20056;-61
2023/03/27 12:54:17;;;;;;;8.18;1.63;;;;;;;;;;5027219;28;20025;-59
2023/03/27 12:56:47;;;;;;;4.28;1.83;;;;;;;;;;5030178;28;20119;-60
2023/03/27 12:59:17;;;;;;;4.20;1.40;;;;;;;;;;5021002;28;20037;-60
2023/03/27 13:01:43;;;;;;;4.53;1.60;;;;;;;;;;5019488;28;20061;-60
2023/03/27 13:04:34;;;;;;;4.68;1.35;;;;;;;;;;5002436;28;20041;-61
2023/03/27 13:07:16;;;;;;;5.82;1.60;;;;;;;;;;5030868;28;20479;-61
2023/03/27 13:10:21;;;;;;;5.80;1.70;;;;;;;;;;5021710;28;20498;-62
2023/03/27 13:13:11;;;;;;;3.65;1.75;;;;;;;;;;5018764;28;20026;-60
2023/03/27 13:15:56;;;;;;;7.57;1.70;;;;;;;;;;5017527;28;20065;-61
2023/03/27 13:18:31;;;;;;;5.22;1.85;;;;;;;;;;5022558;28;20025;-61
2023/03/27 13:20:59;;;;;;;6.35;1.88;;;;;;;;;;5029175;28;20475;-63
2023/03/27 13:23:40;;;;;;;4.63;1.50;;;;;;;;;;5017498;28;20124;-60
2023/03/27 13:26:16;;;;;;;7.55;1.88;;;;;;;;;;5026335;28;20087;-61
2023/03/27 13:28:50;;;;;;;8.30;2.15;;;;;;;;;;5019600;28;20155;-59
2023/03/27 13:31:35;;;;;;;5.28;1.83;;;;;;;;;;5016125;28;20037;-60
2023/03/27 13:34:14;;;;;;;4.88;1.95;;;;;;;;;;5014637;28;20041;-58
2023/03/27 13:36:47;;;;;;;7.38;2.30;;;;;;;;;;5025884;28;20033;-60
2023/03/27 13:39:23;;;;;;;6.28;2.13;;;;;;;;;;5019906;28;20042;-62
2023/03/27 13:42:11;;;;;;;6.38;1.90;;;;;;;;;;5029468;28;20081;-60
2023/03/27 13:44:53;;;;;;;5.13;1.85;;;;;;;;;;5026978;28;20064;-61
2023/03/27 13:47:28;;;;;;;5.15;1.55;;;;;;;;;;5013508;28;20112;-61
2023/03/27 13:49:54;;;;;;;7.82;2.30;;;;;;;;;;5031051;28;20038;-59
2023/03/27 13:52:20;;;;;;;4.60;2.00;;;;;;;;;;5021435;28;20160;-59
2023/03/27 13:54:45;;;;;;;3.60;1.75;;;;;;;;;;4998942;28;20033;-61
2023/03/27 13:57:11;;;;;;;6.80;1.90;;;;;;;;;;5019975;28;20391;-60
2023/03/27 13:59:40;;;;;;;6.75;1.95;;;;;;;;;;5015975;28;20037;-58
2023/03/27 14:02:15;;;;;;;6.60;1.95;;;;;;;;;;5018992;28;20061;-61
2023/03/27 14:04:53;;;;;;;10.25;2.20;;;;;;;;;;5017571;28;20037;-60
2023/03/27 14:07:34;;;;;;;5.30;1.90;;;;;;;;;;5025953;28;20475;-58
2023/03/27 14:10:25;;;;;;;7.70;2.00;;;;;;;;;;5031644;28;20398;-60
2023/03/27 14:13:16;;;;;;;5.13;1.95;;;;;;;;;;5028792;28;20045;-61
2023/03/27 14:15:47;;;;;;;6.32;2.00;;;;;;;;;;5021643;28;20114;-60
2023/03/27 14:18:36;;;;;;;7.95;2.00;;;;;;;;;;5014362;28;20037;-58
2023/03/27 14:21:04;;;;;;;6.78;2.00;;;;;;;;;;5010295;28;20132;-62
2023/03/27 14:23:44;;;;;;;5.80;2.30;;;;;;;;;;5015944;28;20050;-60
2023/03/27 14:26:20;;;;;;;8.30;2.35;;;;;;;;;;5023386;28;20044;-60
2023/03/27 14:28:53;;;;;;;4.50;2.00;;;;;;;;;;5026377;28;20076;-61
2023/03/27 14:31:34;;;;;;;7.78;2.28;;;;;;;;;;5026264;28;20064;-61
2023/03/27 14:34:06;;;;;;;4.97;2.00;;;;;;;;;;5027341;28;20042;-59
2023/03/27 14:36:40;;;;;;;4.82;1.90;;;;;;;;;;4996827;28;20056;-62
2023/03/27 14:39:20;;;;;;;4.38;1.67;;;;;;;;;;5021275;28;20041;-61
2023/03/27 14:41:54;;;;;;;5.10;1.77;;;;;;;;;;5010228;28;20103;-60
2023/03/27 14:44:22;;;;;;;4.38;1.95;;;;;;;;;;5016452;28;20546;-60
2023/03/27 14:46:49;;;;;;;3.05;1.90;;;;;;;;;;5017661;28;20445;-59
2023/03/27 14:49:18;;;;;;;6.32;1.98;;;;;;;;;;5018547;28;20469;-60
2023/03/27 14:51:46;;;;;;;4.82;1.80;;;;;;;;;;5014300;28;20037;-60
2023/03/27 14:54:27;;;;;;;4.25;1.80;;;;;;;;;;5013680;28;20037;-59
2023/03/27 14:57:01;;;;;;;4.47;2.10;;;;;;;;;;5015117;28;20048;-62
2023/03/27 14:59:33;;;;;;;2.55;1.77;;;;;;;;;;5007794;28;20037;-59
2023/03/27 15:02:03;;;;;;;5.88;1.98;;;;;;;;;;5020206;28;20038;-59
2023/03/27 15:04:30;;;;;;;2.25;1.65;;;;;;;;;;5012161;28;20030;-59
2023/03/27 15:07:17;;;;;;;4.00;1.92;;;;;;;;;;5034246;28;20038;-59
2023/03/27 15:10:04;;;;;;;3.40;1.77;;;;;;;;;;5007545;28;20033;-59
2023/03/27 15:12:54;;;;;;;3.97;2.10;;;;;;;;;;5008648;28;20037;-59
2023/03/27 15:15:23;;;;;;;4.80;1.88;;;;;;;;;;5010112;28;20031;-61
2023/03/27 15:17:49;;;;;;;4.57;2.10;;;;;;;;;;5014954;28;20152;-61
2023/03/27 15:20:17;;;;;;;6.00;1.90;;;;;;;;;;5020381;28;20085;-60
2023/03/27 15:22:44;;;;;;;3.42;1.90;;;;;;;;;;5010789;28;20037;-59